createdAt,value
2022-12-11T00:00:27.827Z,89.63
2022-12-11T00:02:54.952Z,89.44
2022-12-11T00:05:21.791Z,88.48
2022-12-11T00:07:48.775Z,88.45
2022-12-11T00:10:15.691Z,88.52
2022-12-11T00:12:42.541Z,87.68
2022-12-11T00:15:12.339Z,87.74
2022-12-11T00:17:40.667Z,87.41
2022-12-11T00:20:08.167Z,87.09
2022-12-11T00:22:35.203Z,86.35
2022-12-11T00:25:02.186Z,85.93
2022-12-11T00:27:28.953Z,85.88
2022-12-11T00:29:57.735Z,85.42
2022-12-11T00:32:28.003Z,85.38
2022-12-11T00:34:55.220Z,84.84
2022-12-11T00:37:22.025Z,84.73
2022-12-11T00:39:48.908Z,84.40
2022-12-11T00:42:15.764Z,84.58
2022-12-11T00:44:42.513Z,83.99
2022-12-11T00:47:09.216Z,83.75
2022-12-11T00:49:35.995Z,83.55
2022-12-11T00:52:02.686Z,83.78
2022-12-11T00:54:29.456Z,84.19
2022-12-11T00:56:56.562Z,84.00
2022-12-11T00:59:23.358Z,82.63
2022-12-11T01:01:51.820Z,83.29
2022-12-11T01:04:18.605Z,83.72
2022-12-11T01:06:45.306Z,84.77
2022-12-11T01:09:30.326Z,85.71
2022-12-11T01:11:57.108Z,85.67
2022-12-11T01:14:23.819Z,85.58
2022-12-11T01:16:50.681Z,85.78
2022-12-11T01:19:17.505Z,86.38
2022-12-11T01:21:44.268Z,85.69
2022-12-11T01:24:11.032Z,86.09
2022-12-11T01:26:37.819Z,86.42
2022-12-11T01:29:04.500Z,86.72
2022-12-11T01:31:31.266Z,86.92
2022-12-11T01:33:58.001Z,86.80
2022-12-11T01:36:24.899Z,87.09
2022-12-11T01:38:51.861Z,87.35
2022-12-11T01:41:19.316Z,87.09
2022-12-11T01:44:05.516Z,87.04
2022-12-11T01:46:36.692Z,87.05
2022-12-11T01:49:08.894Z,87.42
2022-12-11T01:52:01.746Z,87.10
2022-12-11T01:54:30.303Z,86.94
2022-12-11T01:57:02.240Z,86.72
2022-12-11T01:59:34.080Z,86.96
2022-12-11T02:02:08.540Z,86.61
2022-12-11T02:04:38.009Z,86.19
2022-12-11T02:07:05.208Z,87.05
2022-12-11T02:09:35.175Z,86.75
2022-12-11T02:12:10.080Z,87.40
2022-12-11T02:14:46.829Z,87.17
2022-12-11T02:17:22.519Z,87.03
2022-12-11T02:20:04.339Z,87.40
2022-12-11T02:22:58.478Z,87.38
2022-12-11T02:25:54.061Z,87.00
2022-12-11T02:28:37.392Z,86.59
2022-12-11T02:31:12.305Z,86.33
2022-12-11T02:33:48.445Z,86.68
2022-12-11T02:36:18.801Z,87.03
2022-12-11T02:38:50.846Z,87.17
2022-12-11T02:41:20.979Z,87.42
2022-12-11T02:43:50.554Z,87.49
2022-12-11T02:46:19.918Z,87.55
2022-12-11T02:48:50.245Z,87.42
2022-12-11T02:51:21.984Z,87.71
2022-12-11T02:53:52.080Z,88.37
2022-12-11T02:56:27.072Z,88.26
2022-12-11T02:59:04.826Z,88.81
2022-12-11T03:01:31.676Z,88.79
2022-12-11T03:03:58.850Z,88.81
2022-12-11T03:06:32.834Z,89.27
2022-12-11T03:08:59.670Z,89.93
2022-12-11T03:11:26.416Z,90.49
2022-12-11T03:13:54.183Z,90.10
2022-12-11T03:16:55.234Z,89.82
2022-12-11T03:19:34.002Z,89.93
2022-12-11T03:22:04.463Z,89.20
2022-12-11T03:24:40.110Z,89.88
2022-12-11T03:27:49.041Z,89.26
2022-12-11T03:30:18.625Z,89.71
2022-12-11T03:32:51.867Z,89.65
2022-12-11T03:35:23.923Z,89.81
2022-12-11T03:37:53.642Z,90.83
2022-12-11T03:40:22.742Z,90.46
2022-12-11T03:42:52.698Z,90.73
2022-12-11T03:45:22.150Z,90.54
2022-12-11T03:47:50.889Z,90.65
2022-12-11T03:50:19.603Z,90.14
2022-12-11T03:52:47.596Z,90.69
2022-12-11T03:55:17.221Z,90.16
2022-12-11T03:57:44.179Z,90.67
2022-12-11T04:00:15.576Z,90.67
2022-12-11T04:02:42.844Z,90.37
2022-12-11T04:05:11.310Z,90.29
2022-12-11T04:07:38.172Z,90.20
2022-12-11T04:10:05.784Z,90.91
2022-12-11T04:12:32.641Z,90.53
2022-12-11T04:15:02.270Z,90.43
2022-12-11T04:17:49.359Z,90.42
2022-12-11T04:20:35.135Z,90.01
2022-12-11T04:23:30.120Z,89.37
2022-12-11T04:26:11.162Z,89.33
2022-12-11T04:28:39.719Z,88.12
2022-12-11T04:31:11.157Z,88.02
2022-12-11T04:33:38.074Z,88.38
2022-12-11T04:36:05.111Z,87.85
2022-12-11T04:38:31.871Z,88.27
2022-12-11T04:41:10.935Z,87.58
2022-12-11T04:43:38.284Z,87.35
2022-12-11T04:46:08.911Z,87.38
2022-12-11T04:48:36.126Z,86.88
2022-12-11T04:51:02.990Z,87.42
2022-12-11T04:53:30.085Z,87.75
2022-12-11T04:55:57.267Z,87.57
2022-12-11T04:58:25.262Z,87.29
2022-12-11T05:00:52.607Z,87.39
2022-12-11T05:03:19.951Z,85.39
2022-12-11T05:05:51.499Z,85.97
2022-12-11T05:08:19.617Z,85.57
2022-12-11T05:10:58.608Z,86.08
2022-12-11T05:13:26.874Z,86.24
2022-12-11T05:15:53.969Z,86.32
2022-12-11T05:18:21.154Z,86.79
2022-12-11T05:21:02.103Z,85.99
2022-12-11T05:23:29.419Z,85.91
2022-12-11T05:26:06.791Z,85.90
2022-12-11T05:28:36.576Z,86.27
2022-12-11T05:31:07.555Z,86.25
2022-12-11T05:33:34.898Z,86.81
2022-12-11T05:36:01.831Z,87.32
2022-12-11T05:38:28.676Z,85.86
2022-12-11T05:40:57.967Z,87.54
2022-12-11T05:43:25.004Z,88.05
2022-12-11T05:45:51.729Z,88.44
2022-12-11T05:48:18.631Z,88.29
2022-12-11T05:50:45.823Z,88.82
2022-12-11T05:53:12.594Z,89.25
2022-12-11T05:55:39.340Z,89.54
2022-12-11T05:58:06.307Z,88.65
2022-12-11T06:00:35.984Z,88.55
2022-12-11T06:03:03.207Z,89.05
2022-12-11T06:05:30.010Z,88.85
2022-12-11T06:07:56.789Z,88.12
2022-12-11T06:10:23.585Z,87.81
2022-12-11T06:12:50.425Z,85.82
2022-12-11T06:15:17.192Z,87.35
2022-12-11T06:17:44.603Z,86.72
2022-12-11T06:20:11.878Z,86.69
2022-12-11T06:22:38.680Z,88.38
2022-12-11T06:25:05.959Z,88.16
2022-12-11T06:27:32.751Z,88.36
2022-12-11T06:29:59.585Z,88.04
2022-12-11T06:32:27.091Z,87.07
2022-12-11T06:34:53.785Z,87.07
2022-12-11T06:37:20.601Z,85.89
2022-12-11T06:39:47.350Z,86.11
2022-12-11T06:42:14.144Z,84.26
2022-12-11T06:44:41.694Z,84.66
2022-12-11T06:47:08.548Z,85.37
2022-12-11T06:49:35.251Z,86.90
2022-12-11T06:52:02.084Z,86.80
2022-12-11T06:54:28.866Z,85.58
2022-12-11T06:56:55.674Z,86.86
2022-12-11T06:59:23.709Z,86.62
2022-12-11T07:01:50.591Z,86.82
2022-12-11T07:04:17.333Z,86.56
2022-12-11T07:06:44.427Z,86.13
2022-12-11T07:09:11.231Z,86.13
2022-12-11T07:11:37.998Z,85.72
2022-12-11T07:14:04.815Z,85.62
2022-12-11T07:16:31.591Z,85.23
2022-12-11T07:18:58.832Z,83.92
2022-12-11T07:21:26.001Z,84.03
2022-12-11T07:23:52.691Z,84.59
2022-12-11T07:26:22.293Z,84.84
2022-12-11T07:28:49.845Z,84.45
2022-12-11T07:31:23.140Z,85.10
2022-12-11T07:33:55.212Z,84.92
2022-12-11T07:36:22.306Z,86.05
2022-12-11T07:38:49.147Z,87.39
2022-12-11T07:41:16.911Z,88.21
2022-12-11T07:43:52.572Z,88.16
2022-12-11T07:46:23.050Z,86.44
2022-12-11T07:48:50.036Z,86.37
2022-12-11T07:51:27.865Z,86.90
2022-12-11T07:53:57.335Z,86.31
2022-12-11T07:56:24.919Z,86.86
2022-12-11T07:58:51.787Z,85.43
2022-12-11T08:01:21.555Z,85.77
2022-12-11T08:03:48.505Z,85.82
2022-12-11T08:06:15.652Z,86.66
2022-12-11T08:08:43.157Z,86.37
2022-12-11T08:11:12.886Z,86.24
2022-12-11T08:13:40.685Z,86.24
2022-12-11T08:16:11.614Z,86.42
2022-12-11T08:18:38.841Z,86.88
2022-12-11T08:21:11.547Z,86.31
2022-12-11T08:23:38.511Z,86.55
2022-12-11T08:26:08.616Z,85.76
2022-12-11T08:28:36.273Z,85.01
2022-12-11T08:31:08.506Z,85.54
2022-12-11T08:33:37.550Z,86.46
2022-12-11T08:36:07.159Z,86.62
2022-12-11T08:38:34.700Z,86.85
2022-12-11T08:41:12.155Z,87.11
2022-12-11T08:43:39.559Z,86.87
2022-12-11T08:46:07.310Z,87.16
2022-12-11T08:48:35.585Z,87.48
2022-12-11T08:51:04.443Z,88.05
2022-12-11T08:53:31.999Z,88.14
2022-12-11T08:56:09.678Z,87.86
2022-12-11T08:58:36.955Z,86.53
2022-12-11T09:01:19.024Z,87.52
2022-12-11T09:03:45.848Z,88.90
2022-12-11T09:06:15.441Z,88.65
2022-12-11T09:08:48.555Z,88.20
2022-12-11T09:11:28.666Z,89.11
2022-12-11T09:13:55.912Z,89.13
2022-12-11T09:16:24.445Z,88.85
2022-12-11T09:18:53.549Z,88.40
2022-12-11T09:21:23.422Z,87.21
2022-12-11T09:23:53.293Z,87.12
2022-12-11T09:26:20.493Z,87.54
2022-12-11T09:28:47.677Z,87.59
2022-12-11T09:31:17.633Z,87.82
2022-12-11T09:33:45.532Z,88.32
2022-12-11T09:36:12.754Z,87.57
2022-12-11T09:38:39.748Z,87.22
2022-12-11T09:41:21.861Z,86.90
2022-12-11T09:43:59.317Z,84.69
2022-12-11T09:46:30.563Z,84.42
2022-12-11T09:49:02.822Z,84.11
2022-12-11T09:51:46.785Z,83.21
2022-12-11T09:54:14.982Z,82.58
2022-12-11T09:56:41.854Z,81.25
2022-12-11T09:59:11.331Z,82.42
2022-12-11T10:01:46.131Z,83.54
2022-12-11T10:04:31.645Z,83.48
2022-12-11T10:07:12.221Z,83.67
2022-12-11T10:09:45.260Z,84.32
2022-12-11T10:12:12.024Z,83.32
2022-12-11T10:15:16.720Z,84.00
2022-12-11T10:17:45.030Z,80.25
2022-12-11T10:20:23.856Z,76.92
2022-12-11T10:22:52.697Z,75.91
2022-12-11T10:25:27.163Z,75.29
2022-12-11T10:27:54.538Z,74.56
2022-12-11T10:30:25.338Z,74.58
2022-12-11T10:33:13.823Z,75.15
2022-12-11T10:35:55.425Z,76.45
2022-12-11T10:38:29.638Z,78.35
2022-12-11T10:41:21.074Z,79.34
2022-12-11T10:43:50.302Z,80.11
2022-12-11T10:46:19.164Z,77.83
2022-12-11T10:48:54.842Z,77.92
2022-12-11T10:51:25.193Z,73.71
2022-12-11T10:53:55.273Z,74.14
2022-12-11T10:56:30.684Z,74.78
2022-12-11T10:58:59.183Z,75.82
2022-12-11T11:01:29.327Z,77.37
2022-12-11T11:04:20.567Z,75.82
2022-12-11T11:06:47.371Z,76.10
2022-12-11T11:09:46.472Z,76.77
2022-12-11T11:12:40.034Z,77.84
2022-12-11T11:15:15.441Z,78.15
2022-12-11T11:17:55.113Z,77.76
2022-12-11T11:20:26.556Z,78.30
2022-12-11T11:23:00.086Z,78.21
2022-12-11T11:25:29.531Z,78.03
2022-12-11T11:28:08.429Z,76.22
2022-12-11T11:30:42.013Z,76.12
2022-12-11T11:33:21.090Z,76.28
2022-12-11T11:35:57.324Z,75.33
2022-12-11T11:38:29.317Z,75.66
2022-12-11T11:41:15.060Z,75.04
2022-12-11T11:43:49.503Z,72.79
2022-12-11T11:46:25.822Z,71.94
2022-12-11T11:49:15.992Z,71.10
2022-12-11T11:51:58.169Z,70.66
2022-12-11T11:54:34.646Z,66.78
2022-12-11T11:57:32.620Z,66.94
2022-12-11T12:00:10.829Z,66.16
2022-12-11T12:02:41.366Z,66.11
2022-12-11T12:05:14.587Z,67.29
2022-12-11T12:08:11.072Z,64.10
2022-12-11T12:11:03.677Z,64.57
2022-12-11T12:13:51.764Z,63.09
2022-12-11T12:16:52.799Z,62.94
2022-12-11T12:19:38.844Z,62.65
2022-12-11T12:22:20.117Z,60.55
2022-12-11T12:25:02.478Z,61.83
2022-12-11T12:27:53.649Z,60.72
2022-12-11T12:30:24.181Z,61.11
2022-12-11T12:33:00.228Z,61.46
2022-12-11T12:35:44.913Z,60.92
2022-12-11T12:38:38.721Z,62.00
2022-12-11T12:41:15.729Z,60.16
2022-12-11T12:44:04.137Z,60.69
2022-12-11T12:47:03.434Z,61.90
2022-12-11T12:49:51.037Z,63.02
2022-12-11T12:52:36.323Z,59.78
2022-12-11T12:55:28.912Z,58.86
2022-12-11T12:58:02.696Z,59.51
2022-12-11T13:00:43.620Z,59.29
2022-12-11T13:03:14.924Z,59.47
2022-12-11T13:05:56.739Z,57.97
2022-12-11T13:08:28.943Z,59.18
2022-12-11T13:11:03.586Z,58.63
2022-12-11T13:14:02.456Z,59.35
2022-12-11T13:16:43.770Z,59.34
2022-12-11T13:19:42.290Z,59.87
2022-12-11T13:22:12.406Z,59.74
2022-12-11T13:24:46.871Z,57.21
2022-12-11T13:27:32.173Z,58.41
2022-12-11T13:30:21.793Z,56.93
2022-12-11T13:33:14.404Z,48.98
2022-12-11T13:35:41.466Z,49.36
2022-12-11T13:38:21.104Z,51.07
2022-12-11T13:40:54.560Z,53.40
2022-12-11T13:43:28.865Z,52.48
2022-12-11T13:46:00.347Z,51.27
2022-12-11T13:48:33.458Z,49.65
2022-12-11T13:51:01.526Z,51.11
2022-12-11T13:53:28.661Z,52.40
2022-12-11T13:56:07.522Z,50.13
2022-12-11T13:58:37.724Z,53.33
2022-12-11T14:01:25.228Z,54.36
2022-12-11T14:04:04.858Z,52.17
2022-12-11T14:06:34.693Z,53.14
2022-12-11T14:09:05.194Z,50.67
2022-12-11T14:11:37.985Z,52.99
2022-12-11T14:14:15.373Z,52.64
2022-12-11T14:16:42.628Z,51.98
2022-12-11T14:19:11.050Z,50.18
2022-12-11T14:21:38.504Z,51.93
2022-12-11T14:24:06.723Z,53.99
2022-12-11T14:26:37.935Z,53.33
2022-12-11T14:29:05.785Z,53.55
2022-12-11T14:31:43.279Z,54.53
2022-12-11T14:34:20.426Z,53.67
2022-12-11T14:36:49.347Z,54.63
2022-12-11T14:39:34.483Z,54.81
2022-12-11T14:42:09.425Z,54.56
2022-12-11T14:44:50.494Z,54.02
2022-12-11T14:47:23.111Z,53.75
2022-12-11T14:50:02.232Z,55.62
2022-12-11T14:52:42.601Z,56.64
2022-12-11T14:55:14.022Z,59.48
2022-12-11T14:57:45.350Z,62.45
2022-12-11T15:00:27.949Z,63.86
2022-12-11T15:03:07.600Z,63.36
2022-12-11T15:05:40.638Z,62.41
2022-12-11T15:08:10.855Z,63.08
2022-12-11T15:10:42.525Z,64.13
2022-12-11T15:13:10.403Z,61.70
2022-12-11T15:15:47.895Z,62.15
2022-12-11T15:18:31.015Z,61.64
2022-12-11T15:21:05.285Z,65.28
2022-12-11T15:23:32.365Z,67.62
2022-12-11T15:26:02.088Z,65.16
2022-12-11T15:28:34.287Z,66.40
2022-12-11T15:31:07.277Z,65.50
2022-12-11T15:33:34.910Z,63.49
2022-12-11T15:36:24.799Z,71.31
2022-12-11T15:38:51.684Z,69.30
2022-12-11T15:41:24.852Z,66.21
2022-12-11T15:43:58.626Z,66.90
2022-12-11T15:46:26.565Z,64.52
2022-12-11T15:48:53.844Z,64.60
2022-12-11T15:51:20.862Z,63.08
2022-12-11T15:53:47.625Z,65.65
2022-12-11T15:56:16.765Z,64.71
2022-12-11T15:58:46.029Z,66.38
2022-12-11T16:01:12.935Z,67.93
2022-12-11T16:03:39.801Z,68.33
2022-12-11T16:06:06.973Z,69.79
2022-12-11T16:08:34.079Z,70.12
2022-12-11T16:11:01.044Z,71.94
2022-12-11T16:13:27.793Z,71.76
2022-12-11T16:15:54.760Z,69.71
2022-12-11T16:18:23.793Z,69.01
2022-12-11T16:20:51.764Z,69.20
2022-12-11T16:23:18.973Z,71.21
2022-12-11T16:25:46.859Z,70.89
2022-12-11T16:28:15.657Z,70.45
2022-12-11T16:30:43.647Z,70.94
2022-12-11T16:33:13.131Z,72.02
2022-12-11T16:35:41.723Z,72.61
2022-12-11T16:38:10.134Z,72.64
2022-12-11T16:40:37.993Z,73.52
2022-12-11T16:43:05.467Z,73.77
2022-12-11T16:45:32.592Z,74.15
2022-12-11T16:48:03.380Z,73.22
2022-12-11T16:50:30.235Z,73.20
2022-12-11T16:52:57.259Z,74.11
2022-12-11T16:55:24.139Z,73.44
2022-12-11T16:57:50.847Z,74.55
2022-12-11T17:00:17.924Z,73.30
2022-12-11T17:02:45.187Z,74.28
2022-12-11T17:05:12.486Z,73.45
2022-12-11T17:07:40.500Z,74.55
2022-12-11T17:10:08.092Z,75.30
2022-12-11T17:12:35.094Z,75.54
2022-12-11T17:15:03.546Z,75.45
2022-12-11T17:17:30.641Z,75.88
2022-12-11T17:19:57.672Z,76.15
2022-12-11T17:22:25.294Z,75.92
2022-12-11T17:24:52.255Z,75.84
2022-12-11T17:27:19.045Z,76.45
2022-12-11T17:29:47.361Z,77.05
2022-12-11T17:32:14.239Z,76.64
2022-12-11T17:34:41.290Z,77.32
2022-12-11T17:37:08.119Z,77.64
2022-12-11T17:39:35.075Z,77.12
2022-12-11T17:42:01.895Z,78.64
2022-12-11T17:44:30.963Z,78.63
2022-12-11T17:46:58.813Z,78.47
2022-12-11T17:49:26.346Z,77.58
2022-12-11T17:51:55.409Z,77.91
2022-12-11T17:54:24.233Z,77.60
2022-12-11T17:56:51.467Z,78.65
2022-12-11T17:59:18.611Z,79.18
2022-12-11T18:01:45.670Z,79.15
2022-12-11T18:04:13.165Z,79.06
2022-12-11T18:06:40.126Z,79.28
2022-12-11T18:09:07.612Z,79.19
2022-12-11T18:11:34.921Z,78.57
2022-12-11T18:14:02.093Z,78.17
2022-12-11T18:16:32.739Z,77.99
2022-12-11T18:19:00.304Z,80.31
2022-12-11T18:21:30.772Z,81.38
2022-12-11T18:23:58.138Z,82.52
2022-12-11T18:26:24.959Z,81.92
2022-12-11T18:28:53.064Z,82.96
2022-12-11T18:31:21.406Z,82.64
2022-12-11T18:33:49.503Z,82.67
2022-12-11T18:36:17.885Z,82.13
2022-12-11T18:38:45.786Z,81.50
2022-12-11T18:41:13.623Z,81.45
2022-12-11T18:43:42.468Z,80.14
2022-12-11T18:46:15.945Z,80.73
2022-12-11T18:48:45.047Z,81.25
2022-12-11T18:51:17.497Z,81.63
2022-12-11T18:53:45.482Z,81.43
2022-12-11T18:56:19.896Z,80.82
2022-12-11T18:58:47.871Z,81.59
2022-12-11T19:01:20.829Z,81.13
2022-12-11T19:03:48.532Z,81.00
2022-12-11T19:06:19.484Z,80.98
2022-12-11T19:08:47.903Z,81.37
2022-12-11T19:11:17.227Z,82.40
2022-12-11T19:13:45.427Z,82.44
2022-12-11T19:16:21.634Z,82.62
2022-12-11T19:18:49.498Z,82.06
2022-12-11T19:21:18.688Z,82.79
2022-12-11T19:23:46.793Z,82.22
2022-12-11T19:26:19.504Z,82.25
2022-12-11T19:28:47.776Z,82.75
2022-12-11T19:31:18.272Z,82.02
2022-12-11T19:33:47.139Z,80.94
2022-12-11T19:36:17.863Z,80.60
2022-12-11T19:38:45.704Z,80.25
2022-12-11T19:41:15.761Z,79.92
2022-12-11T19:43:42.841Z,79.43
2022-12-11T19:46:10.884Z,80.54
2022-12-11T19:48:40.960Z,81.86
2022-12-11T19:51:12.731Z,82.05
2022-12-11T19:53:41.818Z,82.14
2022-12-11T19:56:10.002Z,82.49
2022-12-11T19:58:37.679Z,82.42
2022-12-11T20:01:05.936Z,82.24
2022-12-11T20:03:33.750Z,81.39
2022-12-11T20:06:08.390Z,80.84
2022-12-11T20:08:44.489Z,81.04
2022-12-11T20:11:17.592Z,81.57
2022-12-11T20:13:49.125Z,81.45
2022-12-11T20:16:17.709Z,81.95
2022-12-11T20:18:46.575Z,81.12
2022-12-11T20:21:16.621Z,79.99
2022-12-11T20:23:44.550Z,81.05
2022-12-11T20:26:18.274Z,81.53
2022-12-11T20:28:48.246Z,81.14
2022-12-11T20:31:20.396Z,81.39
2022-12-11T20:33:49.676Z,80.98
2022-12-11T20:36:18.647Z,80.38
2022-12-11T20:38:49.625Z,81.10
2022-12-11T20:41:19.681Z,81.22
2022-12-11T20:43:49.167Z,82.47
2022-12-11T20:46:17.867Z,83.21
2022-12-11T20:48:45.233Z,82.57
2022-12-11T20:51:14.217Z,81.26
2022-12-11T20:53:45.214Z,79.78
2022-12-11T20:56:18.832Z,80.50
2022-12-11T20:58:46.144Z,80.75
2022-12-11T21:01:15.501Z,80.94
2022-12-11T21:03:43.030Z,81.48
2022-12-11T21:06:28.849Z,82.03
2022-12-11T21:08:56.422Z,82.77
2022-12-11T21:11:24.133Z,83.68
2022-12-11T21:13:51.997Z,83.60
2022-12-11T21:16:19.913Z,82.81
2022-12-11T21:18:47.196Z,80.04
2022-12-11T21:21:14.970Z,81.18
2022-12-11T21:23:42.141Z,81.69
2022-12-11T21:26:09.060Z,82.68
2022-12-11T21:28:36.442Z,82.37
2022-12-11T21:31:06.141Z,82.27
2022-12-11T21:33:34.309Z,81.66
2022-12-11T21:36:01.670Z,81.31
2022-12-11T21:38:29.625Z,81.58
2022-12-11T21:41:07.593Z,80.84
2022-12-11T21:43:34.820Z,81.77
2022-12-11T21:46:08.399Z,81.90
2022-12-11T21:48:39.333Z,82.15
2022-12-11T21:51:19.096Z,81.46
2022-12-11T21:53:46.921Z,81.31
2022-12-11T21:56:15.861Z,81.32
2022-12-11T21:58:42.703Z,80.79
2022-12-11T22:01:25.286Z,80.36
2022-12-11T22:03:55.543Z,80.89
2022-12-11T22:06:23.067Z,83.57
2022-12-11T22:08:50.524Z,83.38
2022-12-11T22:11:26.868Z,83.55
2022-12-11T22:13:56.260Z,82.57
2022-12-11T22:16:23.814Z,82.48
2022-12-11T22:18:55.698Z,81.37
2022-12-11T22:21:23.047Z,82.42
2022-12-11T22:23:50.173Z,82.17
2022-12-11T22:26:21.654Z,81.69
2022-12-11T22:29:04.110Z,81.24
2022-12-11T22:31:32.482Z,79.16
2022-12-11T22:33:59.849Z,81.07
2022-12-11T22:36:29.309Z,81.38
2022-12-11T22:39:03.125Z,81.62
2022-12-11T22:41:32.740Z,80.85
2022-12-11T22:44:00.114Z,81.49
2022-12-11T22:46:31.645Z,81.76
2022-12-11T22:49:12.573Z,82.63
2022-12-11T22:51:42.812Z,82.70
2022-12-11T22:54:09.750Z,82.69
2022-12-11T22:56:38.621Z,82.68
2022-12-11T22:59:07.865Z,80.54
2022-12-11T23:04:33.849Z,80.35
2022-12-11T23:07:00.629Z,79.29
2022-12-11T23:09:27.770Z,80.16
2022-12-11T23:12:01.577Z,80.60
2022-12-11T23:14:29.143Z,82.27
2022-12-11T23:16:56.319Z,83.69
2022-12-11T23:19:25.655Z,85.16
2022-12-11T23:21:56.045Z,84.99
2022-12-11T23:24:24.073Z,86.75
2022-12-11T23:26:53.876Z,86.85
2022-12-11T23:29:20.998Z,86.94
2022-12-11T23:31:50.989Z,87.13
2022-12-11T23:34:19.368Z,85.64
2022-12-11T23:36:46.885Z,85.67
2022-12-11T23:39:13.992Z,86.36
2022-12-11T23:41:41.242Z,86.88
2022-12-11T23:44:10.352Z,87.18
2022-12-11T23:46:37.353Z,86.87
2022-12-11T23:49:07.836Z,86.83
2022-12-11T23:51:35.163Z,86.37
2022-12-11T23:54:02.003Z,86.95
2022-12-11T23:56:32.257Z,85.22
2022-12-11T23:58:59.402Z,86.36
